sensor_id;sensor_type;location;lat;lon;timestamp;P1;durP1;ratioP1;P2;durP2;ratioP2
79687;SDS011;69155;49.464;2.108;2024-01-30T00:01:00;7.00;;;4.60;;
79687;SDS011;69155;49.464;2.108;2024-01-30T00:03:26;6.77;;;4.43;;
79687;SDS011;69155;49.464;2.108;2024-01-30T00:05:51;6.53;;;4.03;;
79687;SDS011;69155;49.464;2.108;2024-01-30T00:08:17;6.93;;;4.40;;
79687;SDS011;69155;49.464;2.108;2024-01-30T00:10:42;7.78;;;4.53;;
79687;SDS011;69155;49.464;2.108;2024-01-30T00:13:07;11.87;;;4.30;;
79687;SDS011;69155;49.464;2.108;2024-01-30T00:15:33;5.73;;;4.20;;
79687;SDS011;69155;49.464;2.108;2024-01-30T00:17:58;4.87;;;4.10;;
79687;SDS011;69155;49.464;2.108;2024-01-30T00:20:23;7.87;;;4.37;;
79687;SDS011;69155;49.464;2.108;2024-01-30T00:22:48;10.83;;;4.33;;
79687;SDS011;69155;49.464;2.108;2024-01-30T00:25:14;7.28;;;4.43;;
79687;SDS011;69155;49.464;2.108;2024-01-30T00:27:39;10.97;;;5.40;;
79687;SDS011;69155;49.464;2.108;2024-01-30T00:30:04;7.10;;;4.83;;
79687;SDS011;69155;49.464;2.108;2024-01-30T00:32:30;7.30;;;4.35;;
79687;SDS011;69155;49.464;2.108;2024-01-30T00:34:55;9.07;;;4.50;;
79687;SDS011;69155;49.464;2.108;2024-01-30T00:37:20;7.97;;;4.30;;
79687;SDS011;69155;49.464;2.108;2024-01-30T00:39:45;10.73;;;4.13;;
79687;SDS011;69155;49.464;2.108;2024-01-30T00:42:11;6.33;;;4.07;;
79687;SDS011;69155;49.464;2.108;2024-01-30T00:44:36;6.40;;;4.50;;
79687;SDS011;69155;49.464;2.108;2024-01-30T00:47:04;7.18;;;3.53;;
79687;SDS011;69155;49.464;2.108;2024-01-30T00:49:30;9.18;;;4.13;;
79687;SDS011;69155;49.464;2.108;2024-01-30T00:51:55;6.57;;;3.67;;
79687;SDS011;69155;49.464;2.108;2024-01-30T00:54:20;10.90;;;4.57;;
79687;SDS011;69155;49.464;2.108;2024-01-30T00:56:45;8.27;;;4.20;;
79687;SDS011;69155;49.464;2.108;2024-01-30T00:59:11;11.43;;;4.50;;
79687;SDS011;69155;49.464;2.108;2024-01-30T01:01:36;7.35;;;3.67;;
79687;SDS011;69155;49.464;2.108;2024-01-30T01:04:01;7.83;;;3.87;;
79687;SDS011;69155;49.464;2.108;2024-01-30T01:06:27;6.30;;;3.95;;
79687;SDS011;69155;49.464;2.108;2024-01-30T01:08:52;7.90;;;4.47;;
79687;SDS011;69155;49.464;2.108;2024-01-30T01:11:17;5.20;;;3.73;;
79687;SDS011;69155;49.464;2.108;2024-01-30T01:13:42;8.20;;;4.07;;
79687;SDS011;69155;49.464;2.108;2024-01-30T01:16:08;7.27;;;4.03;;
79687;SDS011;69155;49.464;2.108;2024-01-30T01:18:33;7.23;;;3.87;;
79687;SDS011;69155;49.464;2.108;2024-01-30T01:20:58;5.83;;;3.80;;
79687;SDS011;69155;49.464;2.108;2024-01-30T01:23:24;8.73;;;3.67;;
79687;SDS011;69155;49.464;2.108;2024-01-30T01:25:49;7.07;;;4.03;;
79687;SDS011;69155;49.464;2.108;2024-01-30T01:28:14;7.73;;;4.43;;
79687;SDS011;69155;49.464;2.108;2024-01-30T01:30:39;8.97;;;4.27;;
79687;SDS011;69155;49.464;2.108;2024-01-30T01:33:05;15.67;;;7.03;;
79687;SDS011;69155;49.464;2.108;2024-01-30T01:35:31;17.88;;;6.95;;
79687;SDS011;69155;49.464;2.108;2024-01-30T01:37:56;9.10;;;4.30;;
79687;SDS011;69155;49.464;2.108;2024-01-30T01:40:24;11.40;;;4.20;;
79687;SDS011;69155;49.464;2.108;2024-01-30T01:42:50;7.88;;;4.13;;
79687;SDS011;69155;49.464;2.108;2024-01-30T01:45:17;8.85;;;3.92;;
79687;SDS011;69155;49.464;2.108;2024-01-30T01:47:42;7.03;;;3.53;;
79687;SDS011;69155;49.464;2.108;2024-01-30T01:50:07;8.38;;;4.22;;
79687;SDS011;69155;49.464;2.108;2024-01-30T01:52:33;6.80;;;3.83;;
79687;SDS011;69155;49.464;2.108;2024-01-30T01:54:58;8.38;;;4.13;;
79687;SDS011;69155;49.464;2.108;2024-01-30T01:57:24;8.50;;;4.13;;
79687;SDS011;69155;49.464;2.108;2024-01-30T01:59:49;5.63;;;3.40;;
79687;SDS011;69155;49.464;2.108;2024-01-30T02:02:14;8.40;;;4.07;;
79687;SDS011;69155;49.464;2.108;2024-01-30T02:04:40;7.20;;;3.95;;
79687;SDS011;69155;49.464;2.108;2024-01-30T02:07:06;6.57;;;3.93;;
79687;SDS011;69155;49.464;2.108;2024-01-30T02:09:31;7.50;;;3.90;;
79687;SDS011;69155;49.464;2.108;2024-01-30T02:11:57;9.77;;;4.57;;
79687;SDS011;69155;49.464;2.108;2024-01-30T02:14:22;6.70;;;3.60;;
79687;SDS011;69155;49.464;2.108;2024-01-30T02:16:47;10.87;;;4.40;;
79687;SDS011;69155;49.464;2.108;2024-01-30T02:19:12;6.63;;;3.87;;
79687;SDS011;69155;49.464;2.108;2024-01-30T02:21:38;8.30;;;4.37;;
79687;SDS011;69155;49.464;2.108;2024-01-30T02:24:03;8.73;;;4.20;;
79687;SDS011;69155;49.464;2.108;2024-01-30T02:26:29;8.23;;;4.13;;
79687;SDS011;69155;49.464;2.108;2024-01-30T02:28:54;12.13;;;4.07;;
79687;SDS011;69155;49.464;2.108;2024-01-30T02:31:19;7.40;;;4.17;;
79687;SDS011;69155;49.464;2.108;2024-01-30T02:33:44;8.70;;;4.23;;
79687;SDS011;69155;49.464;2.108;2024-01-30T02:36:09;9.33;;;5.10;;
79687;SDS011;69155;49.464;2.108;2024-01-30T02:38:35;9.33;;;4.00;;
79687;SDS011;69155;49.464;2.108;2024-01-30T02:41:00;7.70;;;4.43;;
79687;SDS011;69155;49.464;2.108;2024-01-30T02:43:25;11.77;;;4.87;;
79687;SDS011;69155;49.464;2.108;2024-01-30T02:45:50;18.17;;;4.37;;
79687;SDS011;69155;49.464;2.108;2024-01-30T02:48:16;13.63;;;4.83;;
79687;SDS011;69155;49.464;2.108;2024-01-30T02:50:41;10.80;;;4.65;;
79687;SDS011;69155;49.464;2.108;2024-01-30T02:53:06;6.13;;;4.73;;
79687;SDS011;69155;49.464;2.108;2024-01-30T02:55:31;14.93;;;5.20;;
79687;SDS011;69155;49.464;2.108;2024-01-30T02:57:57;11.37;;;5.63;;
79687;SDS011;69155;49.464;2.108;2024-01-30T03:00:22;8.20;;;4.07;;
79687;SDS011;69155;49.464;2.108;2024-01-30T03:02:47;6.70;;;4.47;;
79687;SDS011;69155;49.464;2.108;2024-01-30T03:05:12;10.07;;;4.70;;
79687;SDS011;69155;49.464;2.108;2024-01-30T03:07:38;9.37;;;4.60;;
79687;SDS011;69155;49.464;2.108;2024-01-30T03:10:06;7.30;;;3.80;;
79687;SDS011;69155;49.464;2.108;2024-01-30T03:12:32;7.20;;;4.38;;
79687;SDS011;69155;49.464;2.108;2024-01-30T03:14:57;8.30;;;4.15;;
79687;SDS011;69155;49.464;2.108;2024-01-30T03:17:22;10.57;;;4.50;;
79687;SDS011;69155;49.464;2.108;2024-01-30T03:19:49;8.35;;;4.53;;
79687;SDS011;69155;49.464;2.108;2024-01-30T03:22:14;8.23;;;4.97;;
79687;SDS011;69155;49.464;2.108;2024-01-30T03:24:39;8.00;;;4.60;;
79687;SDS011;69155;49.464;2.108;2024-01-30T03:27:04;14.27;;;5.63;;
79687;SDS011;69155;49.464;2.108;2024-01-30T03:29:30;10.57;;;4.90;;
79687;SDS011;69155;49.464;2.108;2024-01-30T03:31:55;7.67;;;4.97;;
79687;SDS011;69155;49.464;2.108;2024-01-30T03:34:20;11.77;;;5.00;;
79687;SDS011;69155;49.464;2.108;2024-01-30T03:36:45;8.63;;;4.93;;
79687;SDS011;69155;49.464;2.108;2024-01-30T03:39:11;7.50;;;4.93;;
79687;SDS011;69155;49.464;2.108;2024-01-30T03:41:36;8.33;;;5.20;;
79687;SDS011;69155;49.464;2.108;2024-01-30T03:44:01;12.73;;;5.03;;
79687;SDS011;69155;49.464;2.108;2024-01-30T03:46:26;17.37;;;9.23;;
79687;SDS011;69155;49.464;2.108;2024-01-30T03:48:52;20.03;;;8.40;;
79687;SDS011;69155;49.464;2.108;2024-01-30T03:51:17;14.73;;;7.20;;
79687;SDS011;69155;49.464;2.108;2024-01-30T03:53:43;18.70;;;8.53;;
79687;SDS011;69155;49.464;2.108;2024-01-30T03:56:17;13.15;;;6.53;;
79687;SDS011;69155;49.464;2.108;2024-01-30T03:58:42;20.05;;;7.65;;
79687;SDS011;69155;49.464;2.108;2024-01-30T04:01:07;15.40;;;6.77;;
79687;SDS011;69155;49.464;2.108;2024-01-30T04:03:37;28.33;;;9.93;;
79687;SDS011;69155;49.464;2.108;2024-01-30T04:06:03;14.30;;;5.80;;
79687;SDS011;69155;49.464;2.108;2024-01-30T04:08:29;21.30;;;7.00;;
79687;SDS011;69155;49.464;2.108;2024-01-30T04:10:54;9.50;;;5.03;;
79687;SDS011;69155;49.464;2.108;2024-01-30T04:13:19;8.47;;;4.23;;
79687;SDS011;69155;49.464;2.108;2024-01-30T04:15:44;12.77;;;5.10;;
79687;SDS011;69155;49.464;2.108;2024-01-30T04:18:13;11.35;;;4.63;;
79687;SDS011;69155;49.464;2.108;2024-01-30T04:20:38;11.70;;;5.27;;
79687;SDS011;69155;49.464;2.108;2024-01-30T04:23:07;9.73;;;4.88;;
79687;SDS011;69155;49.464;2.108;2024-01-30T04:25:32;9.23;;;5.07;;
79687;SDS011;69155;49.464;2.108;2024-01-30T04:27:57;7.20;;;4.57;;
79687;SDS011;69155;49.464;2.108;2024-01-30T04:30:22;11.57;;;4.77;;
79687;SDS011;69155;49.464;2.108;2024-01-30T04:32:48;13.10;;;5.20;;
79687;SDS011;69155;49.464;2.108;2024-01-30T04:35:13;13.13;;;4.67;;
79687;SDS011;69155;49.464;2.108;2024-01-30T04:37:38;12.40;;;5.03;;
79687;SDS011;69155;49.464;2.108;2024-01-30T04:40:03;10.73;;;5.07;;
79687;SDS011;69155;49.464;2.108;2024-01-30T04:42:30;14.57;;;5.85;;
79687;SDS011;69155;49.464;2.108;2024-01-30T04:44:55;11.43;;;5.67;;
79687;SDS011;69155;49.464;2.108;2024-01-30T04:47:20;10.67;;;5.03;;
79687;SDS011;69155;49.464;2.108;2024-01-30T04:49:46;10.05;;;4.80;;
79687;SDS011;69155;49.464;2.108;2024-01-30T04:52:11;13.20;;;5.37;;
79687;SDS011;69155;49.464;2.108;2024-01-30T04:54:36;12.03;;;5.40;;
79687;SDS011;69155;49.464;2.108;2024-01-30T04:57:02;10.13;;;5.47;;
79687;SDS011;69155;49.464;2.108;2024-01-30T04:59:27;14.25;;;5.45;;
79687;SDS011;69155;49.464;2.108;2024-01-30T05:01:52;8.97;;;5.30;;
79687;SDS011;69155;49.464;2.108;2024-01-30T05:04:18;8.67;;;5.00;;
79687;SDS011;69155;49.464;2.108;2024-01-30T05:06:43;9.67;;;4.87;;
79687;SDS011;69155;49.464;2.108;2024-01-30T05:09:08;11.33;;;5.43;;
79687;SDS011;69155;49.464;2.108;2024-01-30T05:11:42;11.23;;;5.20;;
79687;SDS011;69155;49.464;2.108;2024-01-30T05:14:08;12.27;;;5.43;;
79687;SDS011;69155;49.464;2.108;2024-01-30T05:16:33;12.15;;;5.90;;
79687;SDS011;69155;49.464;2.108;2024-01-30T05:18:59;9.07;;;5.30;;
79687;SDS011;69155;49.464;2.108;2024-01-30T05:21:24;9.73;;;5.37;;
79687;SDS011;69155;49.464;2.108;2024-01-30T05:23:49;12.33;;;4.77;;
79687;SDS011;69155;49.464;2.108;2024-01-30T05:26:14;14.40;;;5.63;;
79687;SDS011;69155;49.464;2.108;2024-01-30T05:28:40;12.13;;;6.07;;
79687;SDS011;69155;49.464;2.108;2024-01-30T05:31:05;13.87;;;5.87;;
79687;SDS011;69155;49.464;2.108;2024-01-30T05:33:30;9.90;;;5.13;;
79687;SDS011;69155;49.464;2.108;2024-01-30T05:35:55;9.83;;;4.97;;
79687;SDS011;69155;49.464;2.108;2024-01-30T05:38:21;13.13;;;4.97;;
79687;SDS011;69155;49.464;2.108;2024-01-30T05:40:46;10.53;;;4.73;;
79687;SDS011;69155;49.464;2.108;2024-01-30T05:43:11;14.27;;;5.60;;
79687;SDS011;69155;49.464;2.108;2024-01-30T05:45:36;14.83;;;5.70;;
79687;SDS011;69155;49.464;2.108;2024-01-30T05:48:02;12.93;;;5.53;;
79687;SDS011;69155;49.464;2.108;2024-01-30T05:50:27;11.83;;;5.43;;
79687;SDS011;69155;49.464;2.108;2024-01-30T05:52:52;11.00;;;4.70;;
79687;SDS011;69155;49.464;2.108;2024-01-30T05:55:18;8.90;;;4.93;;
79687;SDS011;69155;49.464;2.108;2024-01-30T05:57:43;14.20;;;5.53;;
79687;SDS011;69155;49.464;2.108;2024-01-30T06:00:10;15.10;;;4.97;;
79687;SDS011;69155;49.464;2.108;2024-01-30T06:02:36;15.48;;;5.50;;
79687;SDS011;69155;49.464;2.108;2024-01-30T06:05:01;8.75;;;5.13;;
79687;SDS011;69155;49.464;2.108;2024-01-30T06:07:26;10.40;;;5.70;;
79687;SDS011;69155;49.464;2.108;2024-01-30T06:09:52;15.33;;;5.80;;
79687;SDS011;69155;49.464;2.108;2024-01-30T06:12:17;11.07;;;6.20;;
79687;SDS011;69155;49.464;2.108;2024-01-30T06:14:42;13.55;;;5.45;;
79687;SDS011;69155;49.464;2.108;2024-01-30T06:17:08;8.80;;;4.93;;
79687;SDS011;69155;49.464;2.108;2024-01-30T06:19:33;11.60;;;5.13;;
79687;SDS011;69155;49.464;2.108;2024-01-30T06:21:59;12.30;;;5.90;;
79687;SDS011;69155;49.464;2.108;2024-01-30T06:24:24;13.87;;;6.33;;
79687;SDS011;69155;49.464;2.108;2024-01-30T06:26:49;15.47;;;5.93;;
79687;SDS011;69155;49.464;2.108;2024-01-30T06:29:14;13.57;;;5.50;;
79687;SDS011;69155;49.464;2.108;2024-01-30T06:31:42;13.77;;;5.47;;
79687;SDS011;69155;49.464;2.108;2024-01-30T06:34:08;16.58;;;6.53;;
79687;SDS011;69155;49.464;2.108;2024-01-30T06:36:33;15.23;;;5.47;;
79687;SDS011;69155;49.464;2.108;2024-01-30T06:38:59;10.52;;;5.55;;
79687;SDS011;69155;49.464;2.108;2024-01-30T06:41:24;11.53;;;5.73;;
79687;SDS011;69155;49.464;2.108;2024-01-30T06:43:49;14.00;;;5.77;;
79687;SDS011;69155;49.464;2.108;2024-01-30T06:46:15;11.27;;;5.90;;
79687;SDS011;69155;49.464;2.108;2024-01-30T06:48:40;11.43;;;6.60;;
79687;SDS011;69155;49.464;2.108;2024-01-30T06:51:05;13.30;;;6.80;;
79687;SDS011;69155;49.464;2.108;2024-01-30T06:53:30;12.10;;;5.67;;
79687;SDS011;69155;49.464;2.108;2024-01-30T06:55:56;11.47;;;6.97;;
79687;SDS011;69155;49.464;2.108;2024-01-30T06:58:21;13.90;;;5.67;;
79687;SDS011;69155;49.464;2.108;2024-01-30T07:00:46;11.43;;;6.23;;
79687;SDS011;69155;49.464;2.108;2024-01-30T07:03:11;10.43;;;6.43;;
79687;SDS011;69155;49.464;2.108;2024-01-30T07:05:37;13.75;;;6.03;;
79687;SDS011;69155;49.464;2.108;2024-01-30T07:08:02;12.97;;;5.87;;
79687;SDS011;69155;49.464;2.108;2024-01-30T07:10:28;17.77;;;5.67;;
79687;SDS011;69155;49.464;2.108;2024-01-30T07:12:53;13.00;;;6.60;;
79687;SDS011;69155;49.464;2.108;2024-01-30T07:15:18;12.03;;;6.57;;
79687;SDS011;69155;49.464;2.108;2024-01-30T07:17:45;13.02;;;7.22;;
79687;SDS011;69155;49.464;2.108;2024-01-30T07:20:11;15.30;;;6.53;;
79687;SDS011;69155;49.464;2.108;2024-01-30T07:22:36;11.20;;;5.63;;
79687;SDS011;69155;49.464;2.108;2024-01-30T07:25:01;15.55;;;6.82;;
79687;SDS011;69155;49.464;2.108;2024-01-30T07:27:26;13.90;;;7.67;;
79687;SDS011;69155;49.464;2.108;2024-01-30T07:29:52;17.33;;;6.93;;
79687;SDS011;69155;49.464;2.108;2024-01-30T07:32:17;14.17;;;6.90;;
79687;SDS011;69155;49.464;2.108;2024-01-30T07:34:43;13.35;;;6.57;;
79687;SDS011;69155;49.464;2.108;2024-01-30T07:37:08;17.27;;;6.77;;
79687;SDS011;69155;49.464;2.108;2024-01-30T07:39:34;18.58;;;7.05;;
79687;SDS011;69155;49.464;2.108;2024-01-30T07:42:00;15.40;;;8.97;;
79687;SDS011;69155;49.464;2.108;2024-01-30T07:44:25;16.67;;;7.13;;
79687;SDS011;69155;49.464;2.108;2024-01-30T07:46:50;14.02;;;6.40;;
79687;SDS011;69155;49.464;2.108;2024-01-30T07:49:16;13.70;;;6.67;;
79687;SDS011;69155;49.464;2.108;2024-01-30T07:51:41;14.07;;;6.73;;
79687;SDS011;69155;49.464;2.108;2024-01-30T07:54:06;15.77;;;6.83;;
79687;SDS011;69155;49.464;2.108;2024-01-30T07:56:31;17.87;;;6.97;;
79687;SDS011;69155;49.464;2.108;2024-01-30T07:58:56;16.63;;;7.67;;
79687;SDS011;69155;49.464;2.108;2024-01-30T08:01:22;15.60;;;6.30;;
79687;SDS011;69155;49.464;2.108;2024-01-30T08:03:47;13.40;;;6.60;;
79687;SDS011;69155;49.464;2.108;2024-01-30T08:06:12;23.87;;;7.57;;
79687;SDS011;69155;49.464;2.108;2024-01-30T08:08:37;18.13;;;7.90;;
79687;SDS011;69155;49.464;2.108;2024-01-30T08:11:03;14.55;;;7.20;;
79687;SDS011;69155;49.464;2.108;2024-01-30T08:13:28;11.93;;;6.93;;
79687;SDS011;69155;49.464;2.108;2024-01-30T08:15:53;17.13;;;6.87;;
79687;SDS011;69155;49.464;2.108;2024-01-30T08:18:18;11.90;;;6.33;;
79687;SDS011;69155;49.464;2.108;2024-01-30T08:20:44;15.15;;;6.72;;
79687;SDS011;69155;49.464;2.108;2024-01-30T08:23:09;17.70;;;7.27;;
79687;SDS011;69155;49.464;2.108;2024-01-30T08:25:35;15.13;;;6.20;;
79687;SDS011;69155;49.464;2.108;2024-01-30T08:28:01;13.13;;;6.60;;
79687;SDS011;69155;49.464;2.108;2024-01-30T08:30:26;19.50;;;6.70;;
79687;SDS011;69155;49.464;2.108;2024-01-30T08:32:52;11.67;;;6.57;;
79687;SDS011;69155;49.464;2.108;2024-01-30T08:35:17;16.60;;;9.70;;
79687;SDS011;69155;49.464;2.108;2024-01-30T08:37:42;18.87;;;8.77;;
79687;SDS011;69155;49.464;2.108;2024-01-30T08:40:07;15.83;;;9.53;;
79687;SDS011;69155;49.464;2.108;2024-01-30T08:42:33;15.95;;;8.48;;
79687;SDS011;69155;49.464;2.108;2024-01-30T08:44:59;15.65;;;9.07;;
79687;SDS011;69155;49.464;2.108;2024-01-30T08:47:24;15.77;;;9.00;;
79687;SDS011;69155;49.464;2.108;2024-01-30T08:49:50;18.10;;;7.85;;
79687;SDS011;69155;49.464;2.108;2024-01-30T08:52:15;16.10;;;7.20;;
79687;SDS011;69155;49.464;2.108;2024-01-30T08:54:40;14.80;;;6.87;;
79687;SDS011;69155;49.464;2.108;2024-01-30T08:57:05;10.80;;;7.10;;
79687;SDS011;69155;49.464;2.108;2024-01-30T08:59:31;13.70;;;6.67;;
79687;SDS011;69155;49.464;2.108;2024-01-30T09:01:56;11.60;;;6.40;;
79687;SDS011;69155;49.464;2.108;2024-01-30T09:04:23;14.00;;;6.57;;
79687;SDS011;69155;49.464;2.108;2024-01-30T09:06:48;11.90;;;6.60;;
79687;SDS011;69155;49.464;2.108;2024-01-30T09:09:13;10.63;;;6.07;;
79687;SDS011;69155;49.464;2.108;2024-01-30T09:11:39;12.30;;;6.28;;
79687;SDS011;69155;49.464;2.108;2024-01-30T09:14:04;7.77;;;5.80;;
79687;SDS011;69155;49.464;2.108;2024-01-30T09:16:30;7.83;;;5.20;;
79687;SDS011;69155;49.464;2.108;2024-01-30T09:18:55;12.55;;;5.80;;
79687;SDS011;69155;49.464;2.108;2024-01-30T09:21:20;8.23;;;4.43;;
79687;SDS011;69155;49.464;2.108;2024-01-30T09:23:46;6.28;;;3.90;;
79687;SDS011;69155;49.464;2.108;2024-01-30T09:26:11;6.03;;;2.80;;
79687;SDS011;69155;49.464;2.108;2024-01-30T09:28:37;3.58;;;2.25;;
79687;SDS011;69155;49.464;2.108;2024-01-30T09:31:03;2.70;;;1.83;;
79687;SDS011;69155;49.464;2.108;2024-01-30T09:33:28;6.32;;;1.65;;
79687;SDS011;69155;49.464;2.108;2024-01-30T09:35:53;6.33;;;1.90;;
79687;SDS011;69155;49.464;2.108;2024-01-30T09:38:18;5.50;;;1.63;;
79687;SDS011;69155;49.464;2.108;2024-01-30T09:40:44;3.03;;;2.22;;
79687;SDS011;69155;49.464;2.108;2024-01-30T09:43:12;3.50;;;1.40;;
79687;SDS011;69155;49.464;2.108;2024-01-30T09:45:40;3.75;;;1.55;;
79687;SDS011;69155;49.464;2.108;2024-01-30T09:48:07;2.30;;;1.40;;
79687;SDS011;69155;49.464;2.108;2024-01-30T09:50:32;5.43;;;1.40;;
79687;SDS011;69155;49.464;2.108;2024-01-30T09:52:58;1.88;;;1.20;;
79687;SDS011;69155;49.464;2.108;2024-01-30T09:55:24;4.27;;;1.23;;
79687;SDS011;69155;49.464;2.108;2024-01-30T09:57:49;2.83;;;1.20;;
79687;SDS011;69155;49.464;2.108;2024-01-30T10:00:14;1.83;;;1.47;;
79687;SDS011;69155;49.464;2.108;2024-01-30T10:02:40;1.90;;;1.03;;
79687;SDS011;69155;49.464;2.108;2024-01-30T10:05:05;1.08;;;1.00;;
79687;SDS011;69155;49.464;2.108;2024-01-30T10:07:30;1.65;;;1.30;;
79687;SDS011;69155;49.464;2.108;2024-01-30T10:09:56;2.60;;;1.27;;
79687;SDS011;69155;49.464;2.108;2024-01-30T10:12:25;3.60;;;1.15;;
79687;SDS011;69155;49.464;2.108;2024-01-30T10:14:55;1.65;;;0.85;;
79687;SDS011;69155;49.464;2.108;2024-01-30T10:17:21;5.60;;;1.00;;
79687;SDS011;69155;49.464;2.108;2024-01-30T10:19:46;3.47;;;0.97;;
79687;SDS011;69155;49.464;2.108;2024-01-30T10:22:11;3.07;;;0.80;;
79687;SDS011;69155;49.464;2.108;2024-01-30T10:24:37;3.63;;;1.33;;
79687;SDS011;69155;49.464;2.108;2024-01-30T10:27:02;1.75;;;0.88;;
79687;SDS011;69155;49.464;2.108;2024-01-30T10:29:27;1.40;;;1.30;;
79687;SDS011;69155;49.464;2.108;2024-01-30T10:32:00;3.30;;;1.15;;
79687;SDS011;69155;49.464;2.108;2024-01-30T10:34:25;1.02;;;0.95;;
79687;SDS011;69155;49.464;2.108;2024-01-30T10:36:51;1.13;;;0.93;;
79687;SDS011;69155;49.464;2.108;2024-01-30T10:39:19;1.38;;;0.90;;
79687;SDS011;69155;49.464;2.108;2024-01-30T10:41:46;3.08;;;1.80;;
79687;SDS011;69155;49.464;2.108;2024-01-30T10:44:13;2.00;;;1.30;;
79687;SDS011;69155;49.464;2.108;2024-01-30T10:46:43;3.55;;;1.33;;
79687;SDS011;69155;49.464;2.108;2024-01-30T10:49:10;1.15;;;0.90;;
79687;SDS011;69155;49.464;2.108;2024-01-30T10:51:38;2.75;;;1.17;;
79687;SDS011;69155;49.464;2.108;2024-01-30T10:54:03;6.85;;;1.40;;
79687;SDS011;69155;49.464;2.108;2024-01-30T10:56:30;2.15;;;1.23;;
79687;SDS011;69155;49.464;2.108;2024-01-30T10:58:57;3.47;;;1.20;;
79687;SDS011;69155;49.464;2.108;2024-01-30T11:01:22;1.73;;;1.30;;
79687;SDS011;69155;49.464;2.108;2024-01-30T11:03:52;1.13;;;0.98;;
79687;SDS011;69155;49.464;2.108;2024-01-30T11:06:17;1.10;;;0.80;;
79687;SDS011;69155;49.464;2.108;2024-01-30T11:08:45;1.67;;;0.93;;
79687;SDS011;69155;49.464;2.108;2024-01-30T11:11:11;0.73;;;0.73;;
79687;SDS011;69155;49.464;2.108;2024-01-30T11:13:36;0.60;;;0.60;;
79687;SDS011;69155;49.464;2.108;2024-01-30T11:16:02;0.97;;;0.87;;
79687;SDS011;69155;49.464;2.108;2024-01-30T11:18:28;1.48;;;0.85;;
79687;SDS011;69155;49.464;2.108;2024-01-30T11:20:56;3.22;;;0.70;;
79687;SDS011;69155;49.464;2.108;2024-01-30T11:23:22;0.82;;;0.80;;
79687;SDS011;69155;49.464;2.108;2024-01-30T11:25:47;1.10;;;1.00;;
79687;SDS011;69155;49.464;2.108;2024-01-30T11:28:13;1.10;;;1.00;;
79687;SDS011;69155;49.464;2.108;2024-01-30T11:30:41;1.20;;;1.10;;
79687;SDS011;69155;49.464;2.108;2024-01-30T11:33:07;0.73;;;0.73;;
79687;SDS011;69155;49.464;2.108;2024-01-30T11:35:37;0.80;;;0.80;;
79687;SDS011;69155;49.464;2.108;2024-01-30T11:38:04;1.45;;;1.00;;
79687;SDS011;69155;49.464;2.108;2024-01-30T11:40:30;0.95;;;0.77;;
79687;SDS011;69155;49.464;2.108;2024-01-30T11:42:55;0.75;;;0.75;;
79687;SDS011;69155;49.464;2.108;2024-01-30T11:45:21;0.70;;;0.70;;
79687;SDS011;69155;49.464;2.108;2024-01-30T11:47:46;4.38;;;0.90;;
79687;SDS011;69155;49.464;2.108;2024-01-30T11:50:12;0.90;;;0.90;;
79687;SDS011;69155;49.464;2.108;2024-01-30T11:52:37;1.20;;;1.10;;
79687;SDS011;69155;49.464;2.108;2024-01-30T11:55:02;0.90;;;0.90;;
79687;SDS011;69155;49.464;2.108;2024-01-30T11:57:28;1.45;;;1.10;;
79687;SDS011;69155;49.464;2.108;2024-01-30T11:59:54;2.47;;;1.00;;
79687;SDS011;69155;49.464;2.108;2024-01-30T12:02:19;1.10;;;1.10;;
79687;SDS011;69155;49.464;2.108;2024-01-30T12:04:44;1.33;;;1.20;;
79687;SDS011;69155;49.464;2.108;2024-01-30T12:07:10;1.37;;;1.27;;
79687;SDS011;69155;49.464;2.108;2024-01-30T12:09:35;2.90;;;1.40;;
79687;SDS011;69155;49.464;2.108;2024-01-30T12:12:00;1.63;;;1.50;;
79687;SDS011;69155;49.464;2.108;2024-01-30T12:14:26;4.20;;;1.93;;
79687;SDS011;69155;49.464;2.108;2024-01-30T12:16:51;1.27;;;1.17;;
79687;SDS011;69155;49.464;2.108;2024-01-30T12:19:25;3.87;;;1.40;;
79687;SDS011;69155;49.464;2.108;2024-01-30T12:21:54;2.10;;;1.63;;
79687;SDS011;69155;49.464;2.108;2024-01-30T12:24:21;1.75;;;1.55;;
79687;SDS011;69155;49.464;2.108;2024-01-30T12:26:46;4.25;;;1.60;;
79687;SDS011;69155;49.464;2.108;2024-01-30T12:29:11;4.03;;;1.63;;
79687;SDS011;69155;49.464;2.108;2024-01-30T12:31:39;3.55;;;1.60;;
79687;SDS011;69155;49.464;2.108;2024-01-30T12:34:06;2.85;;;1.55;;
79687;SDS011;69155;49.464;2.108;2024-01-30T12:36:32;2.80;;;1.80;;
79687;SDS011;69155;49.464;2.108;2024-01-30T12:38:57;5.73;;;1.87;;
79687;SDS011;69155;49.464;2.108;2024-01-30T12:41:22;3.80;;;1.50;;
79687;SDS011;69155;49.464;2.108;2024-01-30T12:43:53;3.38;;;1.60;;
79687;SDS011;69155;49.464;2.108;2024-01-30T12:46:18;3.22;;;1.73;;
79687;SDS011;69155;49.464;2.108;2024-01-30T12:48:43;7.83;;;1.60;;
79687;SDS011;69155;49.464;2.108;2024-01-30T12:51:11;3.87;;;2.00;;
79687;SDS011;69155;49.464;2.108;2024-01-30T12:53:36;3.53;;;1.77;;
79687;SDS011;69155;49.464;2.108;2024-01-30T12:56:01;3.03;;;2.00;;
79687;SDS011;69155;49.464;2.108;2024-01-30T12:58:26;4.47;;;1.80;;
79687;SDS011;69155;49.464;2.108;2024-01-30T13:00:52;2.33;;;1.80;;
79687;SDS011;69155;49.464;2.108;2024-01-30T13:03:18;3.38;;;1.75;;
79687;SDS011;69155;49.464;2.108;2024-01-30T13:05:44;1.93;;;1.70;;
79687;SDS011;69155;49.464;2.108;2024-01-30T13:08:09;6.47;;;2.17;;
79687;SDS011;69155;49.464;2.108;2024-01-30T13:10:34;2.50;;;1.80;;
79687;SDS011;69155;49.464;2.108;2024-01-30T13:12:59;3.90;;;1.77;;
79687;SDS011;69155;49.464;2.108;2024-01-30T13:15:25;2.60;;;1.50;;
79687;SDS011;69155;49.464;2.108;2024-01-30T13:17:50;3.93;;;1.73;;
79687;SDS011;69155;49.464;2.108;2024-01-30T13:20:15;4.82;;;1.83;;
79687;SDS011;69155;49.464;2.108;2024-01-30T13:22:45;2.78;;;1.50;;
79687;SDS011;69155;49.464;2.108;2024-01-30T13:25:10;3.95;;;1.60;;
79687;SDS011;69155;49.464;2.108;2024-01-30T13:27:36;3.93;;;1.87;;
79687;SDS011;69155;49.464;2.108;2024-01-30T13:30:02;4.63;;;1.88;;
79687;SDS011;69155;49.464;2.108;2024-01-30T13:32:27;2.90;;;1.83;;
79687;SDS011;69155;49.464;2.108;2024-01-30T13:34:52;2.10;;;1.73;;
79687;SDS011;69155;49.464;2.108;2024-01-30T13:37:17;3.73;;;1.40;;
79687;SDS011;69155;49.464;2.108;2024-01-30T13:39:43;2.35;;;1.80;;
79687;SDS011;69155;49.464;2.108;2024-01-30T13:42:08;2.43;;;1.70;;
79687;SDS011;69155;49.464;2.108;2024-01-30T13:44:34;5.27;;;2.20;;
79687;SDS011;69155;49.464;2.108;2024-01-30T13:47:00;4.55;;;1.63;;
79687;SDS011;69155;49.464;2.108;2024-01-30T13:49:25;4.53;;;1.70;;
79687;SDS011;69155;49.464;2.108;2024-01-30T13:51:50;5.93;;;1.83;;
79687;SDS011;69155;49.464;2.108;2024-01-30T13:54:15;3.30;;;1.63;;
79687;SDS011;69155;49.464;2.108;2024-01-30T13:56:41;1.90;;;1.67;;
79687;SDS011;69155;49.464;2.108;2024-01-30T13:59:06;3.57;;;1.70;;
79687;SDS011;69155;49.464;2.108;2024-01-30T14:01:32;1.67;;;1.52;;
79687;SDS011;69155;49.464;2.108;2024-01-30T14:03:57;1.97;;;1.60;;
79687;SDS011;69155;49.464;2.108;2024-01-30T14:06:22;3.07;;;1.40;;
79687;SDS011;69155;49.464;2.108;2024-01-30T14:08:48;4.50;;;1.90;;
79687;SDS011;69155;49.464;2.108;2024-01-30T14:11:13;23.00;;;13.57;;
79687;SDS011;69155;49.464;2.108;2024-01-30T14:13:38;8.73;;;2.20;;
79687;SDS011;69155;49.464;2.108;2024-01-30T14:16:04;4.60;;;1.80;;
79687;SDS011;69155;49.464;2.108;2024-01-30T14:18:29;6.20;;;3.17;;
79687;SDS011;69155;49.464;2.108;2024-01-30T14:20:54;5.50;;;1.80;;
79687;SDS011;69155;49.464;2.108;2024-01-30T14:23:20;4.80;;;1.67;;
79687;SDS011;69155;49.464;2.108;2024-01-30T14:25:46;8.88;;;2.33;;
79687;SDS011;69155;49.464;2.108;2024-01-30T14:28:11;4.03;;;1.40;;
79687;SDS011;69155;49.464;2.108;2024-01-30T14:30:40;6.97;;;1.63;;
79687;SDS011;69155;49.464;2.108;2024-01-30T14:33:05;4.75;;;1.35;;